Time;durP1;ratioP1;P1;durP2;ratioP2;P2;SDS_P1;SDS_P2;PMS_P1;PMS_P2;Temp;Humidity;BMP_temperature;BMP_pressure;BME280_temperature;BME280_humidity;BME280_pressure;Samples;Min_cycle;Max_cycle;Signal;HPM_P1;HPM_P2
2022/08/07 00:00:24;;;;;;;1.57;1.47;;;16.90;99.90;;;;;;5020698;28;20242;-48
2022/08/07 00:02:56;;;;;;;2.00;1.60;;;17.10;99.90;;;;;;5020836;28;20669;-48
2022/08/07 00:05:24;;;;;;;3.40;1.67;;;17.00;99.90;;;;;;5027641;28;20241;-48
2022/08/07 00:07:53;;;;;;;2.47;1.73;;;17.10;99.90;;;;;;5020877;28;20251;-47
2022/08/07 00:10:27;;;;;;;1.87;1.60;;;17.20;99.90;;;;;;5021104;28;20203;-47
2022/08/07 00:12:59;;;;;;;2.13;1.80;;;17.10;99.90;;;;;;5018128;28;20295;-48
2022/08/07 00:15:32;;;;;;;4.20;1.63;;;17.00;99.90;;;;;;5020256;28;20283;-48
2022/08/07 00:18:17;;;;;;;2.43;1.50;;;17.10;99.90;;;;;;5021296;28;20200;-48
2022/08/07 00:20:48;;;;;;;2.77;1.60;;;17.20;99.90;;;;;;5018816;28;20211;-49
2022/08/07 00:23:16;;;;;;;4.90;1.90;;;17.10;99.90;;;;;;5027500;28;20577;-48
2022/08/07 00:25:43;;;;;;;3.30;1.93;;;17.20;99.90;;;;;;5020387;28;21158;-49
2022/08/07 00:28:27;;;;;;;2.07;1.70;;;17.00;99.90;;;;;;5018834;28;20208;-48
2022/08/07 00:31:02;;;;;;;2.43;1.67;;;17.00;99.90;;;;;;5018559;28;20209;-48
2022/08/07 00:33:32;;;;;;;2.97;1.70;;;16.90;99.90;;;;;;5018649;28;20694;-47
2022/08/07 00:36:04;;;;;;;3.27;2.20;;;16.90;99.90;;;;;;5019196;28;20214;-49
2022/08/07 00:38:35;;;;;;;2.70;2.00;;;16.80;99.90;;;;;;5019159;28;20217;-48
2022/08/07 00:41:08;;;;;;;2.83;1.80;;;16.80;99.90;;;;;;5020055;28;20575;-47
2022/08/07 00:43:40;;;;;;;2.37;2.13;;;16.80;99.90;;;;;;5019388;28;20236;-48
2022/08/07 00:46:27;;;;;;;3.20;1.90;;;16.70;99.90;;;;;;5018609;28;20217;-48
2022/08/07 00:49:00;;;;;;;2.43;1.77;;;16.70;99.90;;;;;;5019791;28;20205;-48
2022/08/07 00:51:28;;;;;;;2.53;1.90;;;16.60;99.90;;;;;;5019693;28;20212;-49
2022/08/07 00:54:16;;;;;;;2.53;2.00;;;16.60;99.90;;;;;;5020316;28;20732;-49
2022/08/07 00:56:46;;;;;;;5.83;1.90;;;16.70;99.90;;;;;;5019833;28;20231;-47
2022/08/07 00:59:19;;;;;;;4.33;2.43;;;16.80;99.90;;;;;;5020813;28;20299;-48
2022/08/07 01:02:06;;;;;;;2.50;1.93;;;16.80;99.90;;;;;;5019686;28;20205;-48
2022/08/07 01:04:53;;;;;;;2.90;2.00;;;16.90;99.90;;;;;;5025197;28;20237;-50
2022/08/07 01:07:26;;;;;;;2.10;1.80;;;17.00;99.90;;;;;;5018446;28;20654;-49
2022/08/07 01:09:57;;;;;;;4.13;2.03;;;16.70;99.90;;;;;;5019563;28;20263;-48
2022/08/07 01:12:38;;;;;;;2.53;1.93;;;16.70;99.90;;;;;;5017410;28;20209;-48
2022/08/07 01:15:19;;;;;;;3.97;2.37;;;16.70;99.90;;;;;;5019171;28;20235;-47
2022/08/07 01:17:46;;;;;;;4.03;2.20;;;16.60;99.90;;;;;;5017432;28;20296;-48
2022/08/07 01:20:15;;;;;;;5.30;2.90;;;16.60;99.90;;;;;;5015048;28;20297;-49
2022/08/07 01:22:44;;;;;;;2.60;2.20;;;16.50;99.90;;;;;;5021730;28;20242;-51
2022/08/07 01:25:33;;;;;;;4.53;2.50;;;16.60;99.90;;;;;;5022800;28;20213;-49
2022/08/07 01:28:21;;;;;;;3.77;2.40;;;16.60;99.90;;;;;;5024198;28;20219;-48
2022/08/07 01:30:48;;;;;;;2.40;2.20;;;16.50;99.90;;;;;;5039596;28;20247;-49
2022/08/07 01:33:17;;;;;;;4.33;2.23;;;16.40;99.90;;;;;;5021817;28;20207;-50
2022/08/07 01:35:45;;;;;;;4.37;2.27;;;16.30;99.90;;;;;;5022896;28;20201;-49
2022/08/07 01:38:21;;;;;;;3.37;2.47;;;16.40;99.90;;;;;;5023007;28;20507;-49
2022/08/07 01:40:57;;;;;;;2.87;2.17;;;16.40;99.90;;;;;;5007101;28;20216;-49
2022/08/07 01:43:27;;;;;;;3.00;2.30;;;16.30;99.90;;;;;;5023578;28;20242;-50
2022/08/07 01:46:04;;;;;;;3.37;2.43;;;16.30;99.90;;;;;;5023033;28;20200;-49
2022/08/07 01:48:36;;;;;;;3.17;2.20;;;16.30;99.90;;;;;;5022407;28;20213;-48
2022/08/07 01:51:11;;;;;;;2.50;2.20;;;16.30;99.90;;;;;;5022146;28;20198;-51
2022/08/07 01:54:03;;;;;;;3.67;2.27;;;16.10;99.90;;;;;;5022907;28;20234;-49
2022/08/07 01:56:53;;;;;;;3.73;2.60;;;16.20;99.90;;;;;;5021986;28;20850;-49
2022/08/07 01:59:28;;;;;;;4.13;2.40;;;16.30;99.90;;;;;;5022257;28;20624;-47
2022/08/07 02:02:05;;;;;;;4.00;2.57;;;16.30;99.90;;;;;;5021878;28;20229;-51
2022/08/07 02:04:39;;;;;;;4.57;2.53;;;16.10;99.90;;;;;;5022867;28;20221;-48
2022/08/07 02:07:28;;;;;;;3.73;2.40;;;16.20;99.90;;;;;;5023499;28;20579;-48
2022/08/07 02:10:18;;;;;;;3.27;2.40;;;16.20;99.90;;;;;;5021061;28;20294;-49
2022/08/07 02:12:46;;;;;;;2.20;2.00;;;16.20;99.90;;;;;;5021905;28;20201;-48
2022/08/07 02:15:21;;;;;;;3.93;2.50;;;16.20;99.90;;;;;;5037352;28;20254;-48
2022/08/07 02:17:57;;;;;;;5.37;3.10;;;16.20;99.90;;;;;;5021389;28;20201;-48
2022/08/07 02:20:29;;;;;;;3.83;2.47;;;16.10;99.90;;;;;;5022324;28;20593;-49
2022/08/07 02:23:00;;;;;;;5.53;2.40;;;16.10;99.90;;;;;;5022491;28;20205;-49
2022/08/07 02:25:35;;;;;;;4.70;2.50;;;16.20;99.90;;;;;;5019218;28;20224;-52
2022/08/07 02:28:25;;;;;;;4.30;2.43;;;16.10;99.90;;;;;;5021392;28;20776;-52
2022/08/07 02:30:55;;;;;;;4.33;2.40;;;16.10;99.90;;;;;;5053383;28;20208;-50
2022/08/07 02:33:26;;;;;;;3.70;2.60;;;16.10;99.90;;;;;;5020601;28;20201;-52
2022/08/07 02:36:08;;;;;;;3.03;2.73;;;16.10;99.90;;;;;;5022369;28;20209;-52
2022/08/07 02:38:57;;;;;;;3.57;2.63;;;16.00;99.90;;;;;;5021042;28;20207;-50
2022/08/07 02:41:25;;;;;;;4.10;2.50;;;15.90;99.90;;;;;;5037616;28;20255;-51
2022/08/07 02:44:03;;;;;;;2.73;2.33;;;16.10;99.90;;;;;;5022062;28;20229;-52
2022/08/07 02:46:32;;;;;;;3.20;2.90;;;15.90;99.90;;;;;;5020022;28;20241;-50
2022/08/07 02:49:04;;;;;;;4.53;2.50;;;16.00;99.90;;;;;;5022400;28;20242;-51
2022/08/07 02:51:34;;;;;;;3.23;2.73;;;16.10;99.90;;;;;;5019893;28;20220;-51
2022/08/07 02:54:20;;;;;;;3.17;2.47;;;16.10;99.90;;;;;;5021596;28;20238;-50
2022/08/07 02:56:52;;;;;;;4.13;2.77;;;16.10;99.90;;;;;;5019884;28;20265;-51
2022/08/07 02:59:23;;;;;;;3.37;2.80;;;16.10;99.90;;;;;;5028528;28;20217;-52
2022/08/07 03:01:54;;;;;;;4.33;3.00;;;16.20;99.90;;;;;;5027621;28;21089;-51
2022/08/07 03:04:24;;;;;;;4.40;2.83;;;16.00;99.90;;;;;;5021035;28;20315;-51
2022/08/07 03:06:52;;;;;;;4.03;2.97;;;15.80;99.90;;;;;;5020955;28;20285;-50
2022/08/07 03:09:21;;;;;;;6.80;2.97;;;15.80;99.90;;;;;;5021360;28;20198;-51
2022/08/07 03:12:12;;;;;;;4.03;3.07;;;15.90;99.90;;;;;;5021757;28;20209;-52
2022/08/07 03:14:50;;;;;;;4.80;2.80;;;16.00;99.90;;;;;;5021716;28;20216;-51
2022/08/07 03:17:19;;;;;;;3.47;2.80;;;16.00;99.90;;;;;;5020715;28;20225;-50
2022/08/07 03:19:52;;;;;;;3.93;3.40;;;16.00;99.90;;;;;;5020182;28;20219;-50
2022/08/07 03:22:23;;;;;;;4.17;3.10;;;15.90;99.90;;;;;;5019865;28;20212;-51
2022/08/07 03:24:58;;;;;;;3.30;3.00;;;15.90;99.90;;;;;;5021757;28;20579;-50
2022/08/07 03:27:27;;;;;;;3.53;3.23;;;15.80;99.90;;;;;;5020789;28;20715;-50
2022/08/07 03:30:08;;;;;;;3.30;3.00;;;15.80;99.90;;;;;;5020885;28;20220;-52
2022/08/07 03:32:41;;;;;;;5.70;3.57;;;15.80;99.90;;;;;;5020410;28;20202;-52
2022/08/07 03:35:26;;;;;;;3.87;3.40;;;15.80;99.90;;;;;;5020528;28;20265;-51
2022/08/07 03:38:15;;;;;;;5.33;3.73;;;15.70;99.90;;;;;;5020110;28;20217;-50
2022/08/07 03:40:49;;;;;;;4.87;3.57;;;15.60;99.90;;;;;;5019745;28;20677;-51
2022/08/07 03:43:24;;;;;;;4.90;3.40;;;15.40;99.90;;;;;;5020197;28;20215;-50
2022/08/07 03:46:01;;;;;;;5.40;3.47;;;15.30;99.90;;;;;;5021028;28;20267;-49
2022/08/07 03:48:30;;;;;;;6.07;3.43;;;15.30;99.90;;;;;;5020832;28;20210;-52
2022/08/07 03:50:59;;;;;;;5.50;3.73;;;15.30;99.90;;;;;;5018936;28;20242;-51
2022/08/07 03:53:30;;;;;;;6.33;3.83;;;15.40;99.90;;;;;;5018020;28;20249;-50
2022/08/07 03:56:23;;;;;;;4.60;3.57;;;15.50;99.90;;;;;;5032515;28;20210;-51
2022/08/07 03:59:04;;;;;;;4.77;3.43;;;15.60;99.90;;;;;;5020201;28;20209;-50
2022/08/07 04:01:43;;;;;;;6.37;3.60;;;15.40;99.90;;;;;;5004410;28;20447;-53
2022/08/07 04:04:14;;;;;;;5.37;4.10;;;15.40;99.90;;;;;;5019973;28;20229;-50
2022/08/07 04:06:44;;;;;;;5.23;4.07;;;15.30;99.90;;;;;;5020562;28;20204;-50
2022/08/07 04:09:12;;;;;;;4.33;3.93;;;15.20;99.90;;;;;;5020217;28;20205;-50
2022/08/07 04:11:43;;;;;;;5.53;3.60;;;15.20;99.90;;;;;;5017590;28;20219;-50
2022/08/07 04:14:32;;;;;;;4.37;3.60;;;15.40;99.90;;;;;;5020265;28;20623;-51
2022/08/07 04:17:07;;;;;;;4.93;3.83;;;15.30;99.90;;;;;;5019673;28;20712;-50
2022/08/07 04:19:50;;;;;;;5.63;3.70;;;15.40;99.90;;;;;;5048815;28;20211;-50
2022/08/07 04:22:25;;;;;;;5.87;3.63;;;15.30;99.90;;;;;;5018895;28;20212;-48
2022/08/07 04:24:57;;;;;;;6.80;3.93;;;15.40;99.90;;;;;;5017997;28;20246;-48
2022/08/07 04:27:38;;;;;;;5.67;3.70;;;15.40;99.90;;;;;;5018738;28;20632;-48
2022/08/07 04:30:12;;;;;;;4.77;3.70;;;15.30;99.90;;;;;;5019951;28;20589;-49
2022/08/07 04:33:04;;;;;;;4.17;3.77;;;15.30;99.90;;;;;;5018752;28;20197;-49
2022/08/07 04:35:34;;;;;;;4.30;3.50;;;15.30;99.90;;;;;;5035832;28;20723;-51
2022/08/07 04:38:06;;;;;;;3.83;3.43;;;15.40;99.90;;;;;;5018607;28;20241;-50
2022/08/07 04:40:38;;;;;;;4.97;3.53;;;15.30;99.90;;;;;;5019372;28;20292;-51
2022/08/07 04:43:24;;;;;;;5.40;4.13;;;15.10;99.90;;;;;;5018171;28;20208;-51
2022/08/07 04:46:20;;;;;;;4.93;3.83;;;15.30;99.90;;;;;;5019693;28;20208;-49
2022/08/07 04:49:29;;;;;;;4.90;3.77;;;15.40;99.90;;;;;;5020465;28;20193;-47
2022/08/07 04:52:24;;;;;;;5.40;4.00;;;15.30;99.90;;;;;;5018801;28;20605;-47
2022/08/07 04:55:10;;;;;;;5.73;4.30;;;15.20;99.90;;;;;;5018725;28;20244;-50
2022/08/07 04:58:11;;;;;;;5.57;4.03;;;15.20;99.90;;;;;;5018758;28;20266;-48
2022/08/07 05:01:23;;;;;;;6.50;4.27;;;15.20;99.90;;;;;;5018334;28;20208;-51
2022/08/07 05:04:21;;;;;;;4.67;3.90;;;15.20;99.90;;;;;;5020726;28;20291;-49
2022/08/07 05:07:17;;;;;;;4.50;3.87;;;15.10;99.90;;;;;;5019264;28;20538;-50
2022/08/07 05:10:12;;;;;;;5.57;4.40;;;15.00;99.90;;;;;;5019091;28;20669;-48
2022/08/07 05:13:06;;;;;;;7.23;4.03;;;15.00;99.90;;;;;;5019620;28;21184;-48
2022/08/07 05:16:01;;;;;;;6.53;4.20;;;15.00;99.90;;;;;;5014014;28;20219;-47
2022/08/07 05:18:40;;;;;;;5.63;4.43;;;15.10;99.90;;;;;;5026365;28;20243;-49
2022/08/07 05:21:10;;;;;;;5.37;3.53;;;15.20;99.90;;;;;;5019562;28;20220;-48
2022/08/07 05:23:58;;;;;;;4.50;3.97;;;15.30;99.90;;;;;;5020093;28;20250;-47
2022/08/07 05:26:48;;;;;;;5.57;3.63;;;15.40;99.90;;;;;;5018871;28;20297;-47
2022/08/07 05:29:18;;;;;;;5.40;4.00;;;15.40;99.90;;;;;;5017454;28;20692;-47
2022/08/07 05:31:48;;;;;;;5.17;4.07;;;15.40;99.90;;;;;;5016101;28;20201;-49
2022/08/07 05:34:20;;;;;;;6.70;4.17;;;15.40;99.90;;;;;;5018460;28;20208;-51
2022/08/07 05:36:54;;;;;;;5.17;4.00;;;15.50;99.90;;;;;;5018884;28;20291;-50
2022/08/07 05:39:23;;;;;;;6.60;4.50;;;15.50;99.90;;;;;;5018239;28;20297;-49
2022/08/07 05:42:12;;;;;;;5.87;4.23;;;15.60;99.90;;;;;;5004633;28;20353;-50
2022/08/07 05:45:04;;;;;;;5.40;3.83;;;15.60;99.90;;;;;;5018234;28;20224;-49
2022/08/07 05:47:52;;;;;;;5.37;4.47;;;15.80;99.90;;;;;;5018713;28;20212;-49
2022/08/07 05:50:33;;;;;;;5.07;3.70;;;15.80;99.90;;;;;;5019448;28;20205;-49
2022/08/07 05:53:03;;;;;;;5.73;4.30;;;15.90;99.90;;;;;;5018328;28;20241;-49
2022/08/07 05:55:33;;;;;;;7.80;4.47;;;16.00;99.90;;;;;;5018273;28;20734;-50
2022/08/07 05:58:23;;;;;;;7.20;4.70;;;16.00;99.90;;;;;;5017534;28;20692;-50
2022/08/07 06:01:07;;;;;;;4.93;4.27;;;16.10;99.90;;;;;;5010606;28;20299;-50
2022/08/07 06:03:43;;;;;;;7.27;4.30;;;16.20;99.90;;;;;;5019285;28;20737;-49
2022/08/07 06:06:24;;;;;;;6.03;4.50;;;16.20;99.90;;;;;;5017545;28;20248;-49
2022/08/07 06:08:59;;;;;;;6.07;4.90;;;16.20;99.90;;;;;;5021604;28;20200;-50
2022/08/07 06:11:32;;;;;;;5.73;4.47;;;16.10;99.90;;;;;;5022641;28;20204;-48
2022/08/07 06:14:04;;;;;;;6.73;4.63;;;16.10;99.90;;;;;;5021469;28;20288;-48
2022/08/07 06:16:48;;;;;;;6.93;4.87;;;16.10;99.90;;;;;;5022497;28;20236;-50
2022/08/07 06:19:25;;;;;;;7.17;4.37;;;16.10;99.90;;;;;;5020796;28;20204;-48
2022/08/07 06:22:23;;;;;;;7.87;5.60;;;16.30;99.90;;;;;;5022838;28;20213;-48
2022/08/07 06:24:53;;;;;;;6.20;5.17;;;16.40;99.90;;;;;;5022208;28;20252;-49
2022/08/07 06:27:27;;;;;;;6.77;4.77;;;16.50;99.90;;;;;;5022531;28;20216;-48
2022/08/07 06:30:14;;;;;;;6.90;5.07;;;16.50;99.90;;;;;;5021203;28;20215;-48
2022/08/07 06:33:00;;;;;;;10.10;5.20;;;16.40;99.90;;;;;;5021679;28;20665;-49
2022/08/07 06:35:29;;;;;;;6.47;5.03;;;16.70;99.90;;;;;;5020464;28;20205;-50
2022/08/07 06:38:14;;;;;;;8.70;4.53;;;16.80;99.90;;;;;;5021521;28;20574;-49
2022/08/07 06:40:50;;;;;;;6.17;4.27;;;17.00;99.90;;;;;;5021455;28;20236;-51
2022/08/07 06:43:21;;;;;;;9.07;5.30;;;17.10;99.90;;;;;;5021915;28;20216;-51
2022/08/07 06:45:49;;;;;;;6.70;4.87;;;17.30;99.90;;;;;;5021645;28;20568;-52
2022/08/07 06:48:17;;;;;;;5.17;4.23;;;17.30;99.90;;;;;;5021053;28;20204;-50
2022/08/07 06:50:53;;;;;;;8.30;4.33;;;17.40;99.90;;;;;;5021877;28;20357;-51
2022/08/07 06:53:21;;;;;;;7.87;4.57;;;17.70;99.90;;;;;;5021231;28;20608;-50
2022/08/07 06:56:11;;;;;;;7.63;4.90;;;17.90;99.90;;;;;;5020630;28;20220;-50
2022/08/07 06:58:42;;;;;;;4.07;3.67;;;18.20;99.90;;;;;;5021483;28;20269;-51
2022/08/07 07:01:32;;;;;;;5.80;4.30;;;18.40;99.90;;;;;;5020079;28;20301;-52
2022/08/07 07:04:10;;;;;;;6.63;4.30;;;18.60;99.90;;;;;;5020771;28;20208;-51
2022/08/07 07:06:58;;;;;;;5.63;4.13;;;19.00;99.90;;;;;;5020714;28;20204;-51
2022/08/07 07:09:29;;;;;;;5.70;3.73;;;19.20;99.90;;;;;;5020937;28;20212;-52
2022/08/07 07:12:05;;;;;;;5.90;3.80;;;19.40;99.90;;;;;;5021423;28;20209;-51
2022/08/07 07:15:02;;;;;;;5.27;4.30;;;19.40;99.90;;;;;;5020243;28;20200;-51
2022/08/07 07:17:32;;;;;;;9.87;4.47;;;19.10;99.90;;;;;;5019799;28;20653;-51
2022/08/07 07:20:15;;;;;;;5.10;4.00;;;19.10;99.90;;;;;;5020794;28;20595;-51
2022/08/07 07:22:52;;;;;;;5.20;4.70;;;19.50;99.90;;;;;;5020419;28;20205;-50
2022/08/07 07:25:42;;;;;;;5.90;4.37;;;19.80;99.90;;;;;;5019892;28;20233;-51
2022/08/07 07:28:42;;;;;;;4.73;3.80;;;19.80;99.90;;;;;;5020535;28;20224;-52
2022/08/07 07:31:58;;;;;;;5.80;3.93;;;19.80;99.90;;;;;;5020455;28;20237;-51
2022/08/07 07:34:31;;;;;;;5.37;3.53;;;19.90;99.90;;;;;;5019721;28;20215;-51
2022/08/07 07:37:01;;;;;;;5.47;4.00;;;19.80;99.90;;;;;;5021004;28;20664;-50
2022/08/07 07:39:49;;;;;;;5.57;4.20;;;19.60;99.90;;;;;;5021837;28;20612;-51
2022/08/07 07:42:24;;;;;;;7.43;3.57;;;19.50;99.90;;;;;;5021538;28;20209;-51
2022/08/07 07:45:10;;;;;;;5.63;4.40;;;20.10;99.90;;;;;;5018881;28;20213;-52
2022/08/07 07:47:44;;;;;;;5.40;4.00;;;20.60;99.90;;;;;;5019940;28;20246;-51
2022/08/07 07:50:21;;;;;;;6.73;4.20;;;20.40;99.90;;;;;;5019335;28;20301;-52
2022/08/07 07:53:06;;;;;;;6.30;4.27;;;20.60;99.90;;;;;;5019931;28;20319;-51
2022/08/07 07:55:46;;;;;;;6.07;4.80;;;20.30;99.90;;;;;;5021189;28;20308;-52
2022/08/07 07:58:34;;;;;;;7.97;4.93;;;20.30;99.90;;;;;;5019971;28;20243;-51
2022/08/07 08:01:08;;;;;;;5.87;4.27;;;19.90;99.90;;;;;;5018081;28;20201;-50
2022/08/07 08:03:59;;;;;;;6.90;4.50;;;20.50;99.90;;;;;;5020594;28;20223;-51
2022/08/07 08:06:42;;;;;;;5.23;4.27;;;20.00;99.90;;;;;;5021040;28;20280;-51
2022/08/07 08:09:20;;;;;;;5.93;3.57;;;20.00;99.90;;;;;;5019603;28;20222;-51
2022/08/07 08:11:50;;;;;;;4.40;3.67;;;20.10;99.90;;;;;;5020648;28;20212;-50
2022/08/07 08:14:34;;;;;;;4.60;3.77;;;20.50;99.90;;;;;;5019397;28;20201;-52
2022/08/07 08:17:05;;;;;;;6.93;3.97;;;20.50;99.90;;;;;;5017679;28;20745;-51
2022/08/07 08:19:59;;;;;;;4.73;3.57;;;20.60;99.90;;;;;;5020275;28;20212;-50
2022/08/07 08:28:33;;;;;;;3.90;3.23;;;20.70;99.90;;;;;;5021242;28;20205;-52
2022/08/07 08:31:09;;;;;;;3.47;3.07;;;20.50;99.90;;;;;;5018599;28;20251;-52
2022/08/07 08:33:42;;;;;;;4.33;3.30;;;20.60;99.90;;;;;;5019344;28;20200;-50
2022/08/07 08:36:29;;;;;;;3.30;2.90;;;20.80;99.90;;;;;;5018633;28;20228;-52
2022/08/07 08:39:00;;;;;;;3.33;2.63;;;21.60;99.90;;;;;;5020632;28;20204;-51
2022/08/07 08:42:06;;;;;;;3.67;3.17;;;21.60;99.90;;;;;;5019074;28;20730;-51
2022/08/07 08:44:42;;;;;;;4.80;3.37;;;22.20;99.90;;;;;;5015794;28;20634;-51
2022/08/07 08:47:32;;;;;;;4.47;3.43;;;22.10;99.90;;;;;;5018450;28;20220;-53
2022/08/07 08:50:33;;;;;;;4.00;3.27;;;22.30;99.90;;;;;;5031507;28;20656;-50
2022/08/07 08:53:08;;;;;;;4.33;2.43;;;22.80;99.90;;;;;;5018640;28;20245;-52
2022/08/07 08:55:40;;;;;;;3.70;2.97;;;22.80;99.90;;;;;;5019435;28;20798;-54
2022/08/07 08:59:11;;;;;;;3.10;2.63;;;23.50;99.90;;;;;;5018737;28;20211;-54
2022/08/07 09:01:57;;;;;;;3.23;2.03;;;24.70;99.90;;;;;;4986033;28;20217;-52
2022/08/07 09:04:54;;;;;;;2.80;1.97;;;26.40;99.90;;;;;;4987066;28;20725;-53
2022/08/07 09:07:35;;;;;;;3.00;1.90;;;26.90;99.90;;;;;;5003849;28;20573;-53
2022/08/07 09:10:35;;;;;;;3.27;2.00;;;27.80;99.90;;;;;;4987214;28;20213;-52
2022/08/07 09:13:52;;;;;;;5.00;2.57;;;28.10;99.90;;;;;;4986449;28;20259;-53
2022/08/07 09:17:01;;;;;;;2.93;2.10;;;26.10;99.90;;;;;;4947935;29;20210;-52
2022/08/07 09:19:46;;;;;;;2.63;2.17;;;27.50;99.90;;;;;;4948921;29;20246;-53
2022/08/07 09:22:42;;;;;;;4.10;2.27;;;26.40;99.90;;;;;;4984613;28;20602;-53
2022/08/07 09:25:54;;;;;;;2.83;1.90;;;27.50;99.90;;;;;;4987374;28;20810;-54
2022/08/07 09:28:35;;;;;;;2.00;1.80;;;27.20;99.90;;;;;;4987470;28;20646;-55
2022/08/07 09:31:44;;;;;;;2.25;1.90;;;28.30;99.90;;;;;;4990267;28;20236;-54
2022/08/07 09:34:24;;;;;;;3.58;1.85;;;27.90;99.90;;;;;;5018773;28;20733;-54
2022/08/07 09:37:10;;;;;;;1.95;1.83;;;27.60;99.90;;;;;;5018843;28;20221;-52
2022/08/07 09:40:02;;;;;;;2.47;2.00;;;27.60;99.90;;;;;;5018973;28;20212;-56
2022/08/07 09:42:42;;;;;;;2.83;1.90;;;27.30;99.90;;;;;;5016277;28;20262;-56
2022/08/07 09:45:52;;;;;;;1.90;1.70;;;27.60;99.90;;;;;;5020529;28;20212;-54
2022/08/07 09:49:00;;;;;;;2.65;1.90;;;26.80;99.90;;;;;;5022640;28;20200;-53
2022/08/07 09:52:14;;;;;;;2.03;1.80;;;26.30;99.90;;;;;;5022352;28;20645;-53
2022/08/07 09:55:07;;;;;;;3.58;1.90;;;26.20;99.90;;;;;;5023004;28;20237;-54
2022/08/07 09:57:54;;;;;;;2.22;1.73;;;25.80;99.90;;;;;;5023193;28;20204;-53
2022/08/07 10:00:29;;;;;;;2.63;1.88;;;25.70;99.90;;;;;;5016461;28;20262;-53
2022/08/07 10:03:00;;;;;;;1.98;1.80;;;26.00;99.90;;;;;;5022453;28;20200;-57
2022/08/07 10:05:55;;;;;;;2.85;1.88;;;25.40;99.90;;;;;;5022979;28;20657;-54
2022/08/07 10:08:45;;;;;;;1.80;1.60;;;26.10;99.90;;;;;;5021871;28;20207;-53
2022/08/07 10:12:06;;;;;;;2.63;1.63;;;25.30;99.90;;;;;;5022511;28;20227;-52
2022/08/07 10:15:23;;;;;;;1.92;1.50;;;25.20;99.90;;;;;;5000524;28;20232;-53
2022/08/07 10:17:59;;;;;;;3.40;1.20;;;24.60;99.90;;;;;;5000109;28;20205;-53
2022/08/07 10:20:32;;;;;;;2.53;1.67;;;24.80;99.90;;;;;;5000127;28;20209;-53
2022/08/07 10:23:11;;;;;;;3.53;2.05;;;24.40;99.90;;;;;;5000288;28;20741;-52
2022/08/07 10:25:57;;;;;;;1.42;1.33;;;24.80;99.90;;;;;;4998884;28;20316;-52
2022/08/07 10:29:05;;;;;;;2.03;1.52;;;24.80;99.90;;;;;;5000440;28;20238;-52
2022/08/07 10:31:42;;;;;;;1.52;1.40;;;24.70;99.90;;;;;;4999581;28;20284;-52
2022/08/07 10:34:29;;;;;;;2.15;1.52;;;24.50;99.90;;;;;;5000171;28;20712;-53
2022/08/07 10:37:12;;;;;;;1.90;1.20;;;24.10;99.90;;;;;;4983641;28;20241;-52
2022/08/07 10:40:07;;;;;;;2.20;1.80;;;24.10;99.90;;;;;;4999057;28;20569;-52
2022/08/07 10:42:42;;;;;;;1.50;1.40;;;23.90;99.90;;;;;;4998601;28;20216;-52
2022/08/07 10:45:31;;;;;;;2.80;1.50;;;23.90;99.90;;;;;;5011453;28;20209;-53
2022/08/07 10:48:25;;;;;;;1.60;1.50;;;24.00;99.90;;;;;;5021185;28;20623;-52
2022/08/07 10:51:16;;;;;;;2.67;1.50;;;23.90;99.90;;;;;;5021678;28;20299;-53
2022/08/07 10:54:14;;;;;;;1.97;1.50;;;24.20;99.90;;;;;;5020726;28;20590;-51
2022/08/07 10:56:45;;;;;;;2.57;1.60;;;24.50;99.90;;;;;;5021232;28;20692;-52
2022/08/07 10:59:46;;;;;;;3.63;2.03;;;24.20;99.90;;;;;;5021060;28;20205;-52
2022/08/07 11:02:41;;;;;;;1.80;1.60;;;24.20;99.90;;;;;;5022072;28;20252;-53
2022/08/07 11:05:36;;;;;;;3.63;1.87;;;24.20;99.90;;;;;;5021737;28;20247;-52
2022/08/07 11:09:04;;;;;;;4.20;2.23;;;24.70;99.90;;;;;;5022172;28;20305;-52
2022/08/07 11:11:51;;;;;;;2.07;1.63;;;24.80;99.90;;;;;;5008881;28;20207;-53
2022/08/07 11:14:39;;;;;;;3.87;1.70;;;24.70;99.90;;;;;;5008299;28;20201;-53
2022/08/07 11:17:46;;;;;;;2.30;1.70;;;25.40;99.90;;;;;;5008292;28;20676;-53
2022/08/07 11:20:41;;;;;;;3.30;1.60;;;25.90;99.90;;;;;;4992825;28;20305;-53
2022/08/07 11:23:18;;;;;;;2.57;1.70;;;26.30;99.90;;;;;;5008806;28;20251;-55
2022/08/07 11:26:27;;;;;;;2.77;1.50;;;26.90;99.90;;;;;;5008427;28;20299;-53
2022/08/07 11:29:27;;;;;;;5.23;1.67;;;27.90;99.90;;;;;;4992330;28;20212;-54
2022/08/07 11:32:19;;;;;;;3.93;1.50;;;27.50;99.90;;;;;;5007870;28;20220;-53
2022/08/07 11:34:58;;;;;;;2.20;1.43;;;28.80;99.90;;;;;;5008542;28;20304;-56
2022/08/07 11:37:34;;;;;;;2.03;1.60;;;29.20;99.90;;;;;;5008433;28;20209;-53
2022/08/07 11:40:38;;;;;;;1.30;1.20;;;29.20;99.90;;;;;;5008794;28;20341;-57
2022/08/07 11:43:23;;;;;;;1.23;1.13;;;28.30;99.90;;;;;;5007954;28;20209;-53
2022/08/07 11:46:35;;;;;;;1.80;1.37;;;30.70;99.90;;;;;;5017304;28;20228;-53
2022/08/07 11:49:22;;;;;;;1.50;1.27;;;30.10;99.90;;;;;;5020045;28;20295;-54
2022/08/07 11:52:38;;;;;;;2.08;1.60;;;30.50;99.90;;;;;;5020382;28;20273;-54
2022/08/07 11:55:17;;;;;;;1.73;1.50;;;28.70;99.90;;;;;;5019660;28;20264;-53
2022/08/07 11:58:19;;;;;;;1.57;1.30;;;28.70;99.90;;;;;;5020699;28;20219;-54
2022/08/07 12:01:30;;;;;;;3.47;1.73;;;28.20;99.90;;;;;;5019937;28;20316;-53
2022/08/07 12:04:33;;;;;;;1.97;1.50;;;28.50;99.90;;;;;;5020549;28;20220;-54
2022/08/07 12:07:18;;;;;;;2.15;1.33;;;27.70;99.90;;;;;;5019788;28;20278;-54
2022/08/07 12:10:08;;;;;;;2.30;1.37;;;29.00;99.90;;;;;;5019690;28;20202;-54
2022/08/07 12:12:56;;;;;;;2.83;1.30;;;29.90;99.90;;;;;;5018492;28;20693;-56
2022/08/07 12:15:29;;;;;;;2.13;1.40;;;29.80;99.90;;;;;;5020545;28;20674;-54
2022/08/07 12:18:21;;;;;;;3.30;1.17;;;30.30;99.90;;;;;;5018866;28;20240;-54
2022/08/07 12:21:05;;;;;;;1.38;1.27;;;30.60;99.90;;;;;;5017891;28;20204;-51
2022/08/07 12:23:38;;;;;;;1.35;1.20;;;29.80;99.90;;;;;;5019179;28;20263;-53
2022/08/07 12:26:52;;;;;;;2.40;1.48;;;30.40;99.90;;;;;;5019691;28;20233;-54
2022/08/07 12:29:34;;;;;;;1.83;1.33;;;30.60;99.90;;;;;;5017611;28;20645;-54
2022/08/07 12:32:18;;;;;;;2.33;1.48;;;29.70;99.90;;;;;;5018422;28;20201;-53
2022/08/07 12:34:46;;;;;;;3.30;1.50;;;29.90;99.90;;;;;;5021126;28;20204;-54
2022/08/07 12:37:20;;;;;;;2.00;1.20;;;29.50;99.90;;;;;;5018757;28;20301;-53
2022/08/07 12:39:57;;;;;;;1.58;1.20;;;30.00;99.90;;;;;;5019747;28;20670;-53
2022/08/07 12:42:26;;;;;;;1.63;1.27;;;29.40;99.90;;;;;;5019350;28;20264;-56
2022/08/07 12:45:03;;;;;;;1.35;1.00;;;27.60;99.90;;;;;;5019688;28;20655;-55
2022/08/07 12:47:47;;;;;;;3.38;1.65;;;26.30;99.90;;;;;;5018686;28;20696;-54
2022/08/07 12:50:18;;;;;;;3.00;1.17;;;26.30;99.90;;;;;;5016736;28;20205;-54
2022/08/07 12:53:29;;;;;;;2.03;1.27;;;28.90;99.90;;;;;;5018345;28;20323;-52
2022/08/07 12:56:26;;;;;;;2.05;1.40;;;29.70;99.90;;;;;;5019183;28;20708;-53
2022/08/07 12:58:54;;;;;;;1.65;1.30;;;29.80;99.90;;;;;;5019510;28;20671;-54
2022/08/07 13:01:36;;;;;;;1.58;1.05;;;30.70;99.90;;;;;;5019085;28;20209;-54
2022/08/07 13:04:39;;;;;;;1.63;1.10;;;30.20;99.90;;;;;;5003709;28;20204;-54
2022/08/07 13:07:46;;;;;;;4.75;1.55;;;30.50;99.90;;;;;;5019995;28;20768;-53
2022/08/07 13:10:50;;;;;;;1.65;1.50;;;27.30;99.90;;;;;;5017705;28;20644;-53
2022/08/07 13:13:36;;;;;;;1.50;1.20;;;28.10;99.90;;;;;;5017780;28;20291;-56
2022/08/07 13:16:43;;;;;;;1.90;1.05;;;28.80;99.90;;;;;;5018804;28;20219;-56
2022/08/07 13:19:34;;;;;;;2.20;2.00;;;29.00;99.90;;;;;;5022168;28;20259;-54
2022/08/07 13:22:21;;;;;;;1.55;1.45;;;28.90;99.90;;;;;;5023109;28;20214;-55
2022/08/07 13:25:02;;;;;;;2.60;1.05;;;29.90;99.90;;;;;;5022842;28;20208;-53
2022/08/07 13:27:49;;;;;;;1.88;0.95;;;29.40;99.90;;;;;;5023099;28;20224;-54
2022/08/07 13:30:42;;;;;;;1.30;1.10;;;29.80;99.90;;;;;;5022349;28;20250;-53
2022/08/07 13:33:43;;;;;;;1.95;1.10;;;28.10;99.90;;;;;;5021878;28;20212;-53
2022/08/07 13:36:40;;;;;;;1.55;1.45;;;28.60;99.90;;;;;;5023212;28;20260;-53
2022/08/07 13:39:16;;;;;;;0.98;0.93;;;29.30;99.90;;;;;;5022103;28;20258;-52
2022/08/07 13:42:08;;;;;;;1.27;1.13;;;30.00;99.90;;;;;;5022296;28;20251;-53
2022/08/07 13:44:38;;;;;;;1.30;1.15;;;30.40;99.90;;;;;;5022547;28;20644;-54
2022/08/07 13:47:08;;;;;;;1.58;1.17;;;29.30;99.90;;;;;;5021276;28;20231;-53
2022/08/07 13:49:46;;;;;;;1.20;1.10;;;27.80;99.90;;;;;;5022479;28;20197;-54
2022/08/07 13:52:39;;;;;;;1.35;1.00;;;28.00;99.90;;;;;;5023660;28;20667;-53
2022/08/07 13:55:14;;;;;;;2.80;0.98;;;28.10;99.90;;;;;;5022797;28;20255;-54
2022/08/07 13:59:08;;;;;;;2.30;1.27;;;28.10;99.90;;;;;;5022889;28;20220;-52
2022/08/07 14:01:14;;;;;;;2.53;1.13;;;26.60;99.90;;;;;;5021034;28;20217;-53
2022/08/07 14:03:47;;;;;;;1.23;1.05;;;27.20;99.90;;;;;;5022607;28;20215;-52
2022/08/07 14:06:36;;;;;;;1.10;0.97;;;27.10;99.90;;;;;;5021119;28;20753;-54
2022/08/07 14:09:05;;;;;;;2.42;1.02;;;27.50;99.90;;;;;;5022320;28;20270;-53
2022/08/07 14:11:42;;;;;;;2.88;0.82;;;28.10;99.90;;;;;;5022896;28;20201;-54
2022/08/07 14:14:25;;;;;;;2.00;1.03;;;28.10;99.90;;;;;;5021465;28;20201;-54